Time;durP1;ratioP1;P1;durP2;ratioP2;P2;SDS_P1;SDS_P2;PMS_P1;PMS_P2;Temp;Humidity;BMP_temperature;BMP_pressure;BME280_temperature;BME280_humidity;BME280_pressure;Samples;Min_cycle;Max_cycle;Signal;HPM_P1;HPM_P2
2021/11/20 00:02:27;;;;;;;13.77;8.75;;;3.00;99.90;;;;;;6165616;28;20034;-81
2021/11/20 00:05:32;;;;;;;11.73;8.02;;;2.90;99.90;;;;;;6181561;28;20075;-83
2021/11/20 00:08:33;;;;;;;12.80;8.98;;;2.90;99.90;;;;;;6165202;28;20469;-83
2021/11/20 00:11:35;;;;;;;11.27;7.85;;;3.10;99.90;;;;;;6165020;28;20035;-82
2021/11/20 00:14:36;;;;;;;14.18;8.85;;;;;;;;;;6164964;28;20507;-84
2021/11/20 00:17:36;;;;;;;9.02;7.45;;;2.90;99.90;;;;;;6181037;28;20037;-83
2021/11/20 00:20:45;;;;;;;10.65;7.95;;;3.10;99.90;;;;;;6180821;28;20074;-83
2021/11/20 00:23:49;;;;;;;9.27;7.50;;;3.00;99.90;;;;;;6182163;28;20392;-83
2021/11/20 00:26:50;;;;;;;13.32;8.48;;;3.00;99.90;;;;;;6181355;28;20161;-84
2021/11/20 00:30:03;;;;;;;11.95;8.23;;;2.90;99.90;;;;;;6165037;28;20417;-83
2021/11/20 00:33:05;;;;;;;29.35;10.05;;;2.90;99.90;;;;;;6165705;28;20126;-83
2021/11/20 00:36:07;;;;;;;28.58;10.07;;;2.80;99.90;;;;;;6149228;28;20026;-83
2021/11/20 00:39:09;;;;;;;28.50;10.10;;;2.60;99.90;;;;;;6164437;28;20810;-83
2021/11/20 00:42:10;;;;;;;17.98;8.38;;;2.50;99.90;;;;;;6164945;28;20034;-83
2021/11/20 00:45:11;;;;;;;18.05;8.25;;;2.90;99.90;;;;;;6180178;28;20050;-84
2021/11/20 00:48:12;;;;;;;30.60;8.80;;;;;;;;;;6164094;28;20475;-82
2021/11/20 00:51:18;;;;;;;14.45;7.75;;;2.80;99.90;;;;;;6179899;28;20030;-82
2021/11/20 00:54:19;;;;;;;28.00;8.55;;;;;;;;;;6180466;28;20145;-82
2021/11/20 00:57:19;;;;;;;33.00;8.15;;;3.10;99.90;;;;;;6196488;28;20034;-82
2021/11/20 01:00:22;;;;;;;29.00;8.55;;;2.70;99.90;;;;;;6180002;28;20042;-83
2021/11/20 01:03:23;;;;;;;25.42;8.32;;;;;;;;;;6164352;28;20031;-83
2021/11/20 01:06:25;;;;;;;27.23;8.40;;;;;;;;;;6180256;28;20029;-83
2021/11/20 01:09:29;;;;;;;15.97;8.07;;;2.70;99.90;;;;;;6180281;28;20456;-83
2021/11/20 01:12:29;;;;;;;23.33;7.65;;;2.70;99.90;;;;;;6163927;28;20278;-84
2021/11/20 01:15:36;;;;;;;21.48;7.20;;;2.60;99.90;;;;;;6180056;28;20465;-83
2021/11/20 01:18:36;;;;;;;19.10;7.97;;;2.50;99.90;;;;;;6163549;28;20133;-84
2021/11/20 01:21:38;;;;;;;22.50;8.63;;;;;;;;;;6163685;28;20353;-85
2021/11/20 01:24:39;;;;;;;17.45;7.55;;;;;;;;;;6179669;28;20026;-82
2021/11/20 01:27:39;;;;;;;17.60;9.05;;;2.60;99.90;;;;;;6179968;28;20038;-81
2021/11/20 01:30:40;;;;;;;12.07;8.43;;;2.50;99.90;;;;;;6179613;28;20034;-81
2021/11/20 01:33:42;;;;;;;10.20;7.85;;;;;;;;;;6179301;28;20033;-82
2021/11/20 01:36:42;;;;;;;11.63;7.78;;;2.80;99.90;;;;;;6163476;28;20536;-84
2021/11/20 01:39:44;;;;;;;15.32;8.13;;;3.00;99.90;;;;;;6162777;28;20057;-82
2021/11/20 01:42:44;;;;;;;8.65;6.80;;;2.90;99.90;;;;;;6179439;28;20425;-83
2021/11/20 01:45:56;;;;;;;11.35;7.28;;;2.70;99.90;;;;;;6162879;28;20065;-82
2021/11/20 01:49:02;;;;;;;8.32;6.32;;;2.80;99.90;;;;;;6163550;28;20045;-82
2021/11/20 01:52:12;;;;;;;8.73;6.55;;;2.70;99.90;;;;;;6179201;28;20392;-83
2021/11/20 01:55:32;;;;;;;9.57;6.45;;;2.70;99.90;;;;;;6179900;28;20030;-82
2021/11/20 01:58:34;;;;;;;9.77;6.43;;;3.00;99.90;;;;;;6162923;28;20069;-82
2021/11/20 02:01:43;;;;;;;9.27;6.60;;;2.80;99.90;;;;;;6196503;28;20030;-82
2021/11/20 02:04:48;;;;;;;9.00;6.10;;;3.10;99.90;;;;;;6162382;28;20034;-82
2021/11/20 02:07:54;;;;;;;11.48;7.03;;;3.20;99.90;;;;;;6178450;28;20065;-83
2021/11/20 02:10:59;;;;;;;10.23;7.05;;;2.90;99.90;;;;;;6178233;28;20034;-82
2021/11/20 02:14:00;;;;;;;10.50;6.90;;;3.00;99.90;;;;;;6178943;28;20030;-81
2021/11/20 02:17:07;;;;;;;9.57;6.60;;;2.90;99.90;;;;;;6178322;28;20524;-82
2021/11/20 02:20:22;;;;;;;9.55;6.60;;;2.70;99.90;;;;;;6178560;28;20049;-84
2021/11/20 02:23:23;;;;;;;12.60;6.75;;;2.80;99.90;;;;;;6178348;28;20031;-84
2021/11/20 02:26:23;;;;;;;11.18;7.03;;;3.10;99.90;;;;;;6178369;28;20093;-83
2021/11/20 02:29:24;;;;;;;10.98;6.85;;;;;;;;;;6195721;28;20484;-83
2021/11/20 02:32:26;;;;;;;12.25;6.85;;;3.10;99.90;;;;;;6178061;28;20026;-83
2021/11/20 02:35:40;;;;;;;13.27;6.93;;;3.10;99.90;;;;;;6178096;28;20548;-83
2021/11/20 02:38:46;;;;;;;13.85;6.72;;;3.00;99.90;;;;;;6161991;28;20066;-83
2021/11/20 02:41:51;;;;;;;12.25;7.50;;;2.90;99.90;;;;;;6178044;28;20030;-84
2021/11/20 02:44:52;;;;;;;17.45;7.93;;;;;;;;;;6161531;28;20066;-82
2021/11/20 02:47:53;;;;;;;16.80;8.23;;;3.10;99.90;;;;;;6178346;28;20026;-81
2021/11/20 02:51:02;;;;;;;14.90;9.43;;;2.90;99.90;;;;;;6178211;28;20081;-84
2021/11/20 02:54:19;;;;;;;13.02;8.32;;;3.20;99.90;;;;;;6161543;28;20035;-83
2021/11/20 02:57:25;;;;;;;16.95;9.18;;;3.00;99.90;;;;;;6178854;28;20041;-84
2021/11/20 03:00:26;;;;;;;18.08;9.32;;;3.10;99.90;;;;;;6161353;28;20038;-84
2021/11/20 03:03:27;;;;;;;20.60;8.95;;;3.10;99.90;;;;;;6177694;28;20053;-82
2021/11/20 03:06:28;;;;;;;17.20;8.93;;;;;;;;;;6177316;28;20033;-82
2021/11/20 03:09:30;;;;;;;16.60;9.02;;;1.60;99.90;;;;;;6177263;28;20421;-82
2021/11/20 03:12:31;;;;;;;17.80;9.00;;;;;;;;;;6177686;28;20030;-84
2021/11/20 03:15:32;;;;;;;15.80;8.93;;;;;;;;;;6160927;28;20288;-84
2021/11/20 03:18:33;;;;;;;21.73;10.00;;;;;;;;;;6177089;28;20038;-84
2021/11/20 03:21:34;;;;;;;21.63;8.80;;;2.90;99.90;;;;;;6161186;28;20084;-83
2021/11/20 03:24:35;;;;;;;16.08;8.02;;;2.90;99.90;;;;;;6161208;28;20042;-83
2021/11/20 03:27:36;;;;;;;17.55;9.48;;;;;;;;;;6160812;28;20053;-83
2021/11/20 03:30:37;;;;;;;17.48;9.07;;;3.20;99.90;;;;;;6161130;28;20053;-83
2021/11/20 03:33:38;;;;;;;16.40;8.98;;;;;;;;;;6176825;28;20073;-83
2021/11/20 03:36:39;;;;;;;14.45;8.35;;;;;;;;;;6176907;28;20050;-82
2021/11/20 03:39:40;;;;;;;18.23;8.35;;;3.00;99.90;;;;;;6177026;28;20044;-84
2021/11/20 03:42:41;;;;;;;17.30;8.82;;;4.40;99.90;;;;;;6176740;28;20031;-82
2021/11/20 03:45:41;;;;;;;16.75;8.63;;;3.40;99.90;;;;;;6177187;28;20432;-81
2021/11/20 03:48:42;;;;;;;16.05;8.77;;;;;;;;;;6160654;28;20038;-83
2021/11/20 03:51:43;;;;;;;13.45;6.28;;;;;;;;;;6176884;28;20030;-82
2021/11/20 03:54:44;;;;;;;11.52;6.43;;;3.40;99.90;;;;;;6176861;28;20428;-83
2021/11/20 03:57:45;;;;;;;11.20;6.28;;;3.50;99.90;;;;;;6160620;28;20027;-81
2021/11/20 04:00:49;;;;;;;12.63;6.55;;;3.50;99.90;;;;;;6176882;28;20432;-83
2021/11/20 04:03:49;;;;;;;10.88;6.28;;;;;;;;;;6176844;28;20026;-82
2021/11/20 04:06:50;;;;;;;12.70;6.88;;;3.40;99.90;;;;;;6176630;28;20501;-83
2021/11/20 04:09:51;;;;;;;10.68;6.70;;;3.30;99.90;;;;;;6176504;28;20121;-83
2021/11/20 04:12:52;;;;;;;10.25;6.07;;;;;;;;;;6176775;28;20034;-84
2021/11/20 04:15:52;;;;;;;13.88;6.15;;;;;;;;;;6176736;28;20030;-83
2021/11/20 04:18:53;;;;;;;7.95;5.32;;;3.30;99.90;;;;;;6176776;28;20034;-84
2021/11/20 04:21:54;;;;;;;13.43;5.90;;;;;;;;;;6160104;28;20085;-83
2021/11/20 04:24:55;;;;;;;8.98;5.90;;;3.30;99.90;;;;;;6176790;28;20359;-82
2021/11/20 04:27:56;;;;;;;10.15;5.32;;;4.20;99.90;;;;;;6164521;28;20085;-83
2021/11/20 04:30:56;;;;;;;10.02;5.55;;;3.20;99.90;;;;;;6164737;28;20032;-82
2021/11/20 04:33:57;;;;;;;7.03;4.95;;;6.20;99.90;;;;;;6180814;28;20038;-82
2021/11/20 04:36:58;;;;;;;7.60;4.68;;;;;;;;;;6164719;28;20049;-82
2021/11/20 04:39:58;;;;;;;7.82;5.28;;;3.40;99.90;;;;;;6198355;28;20034;-82
2021/11/20 04:42:59;;;;;;;6.70;4.78;;;3.10;99.90;;;;;;6164625;28;20027;-82
2021/11/20 04:46:00;;;;;;;6.78;4.60;;;4.70;99.90;;;;;;6180446;28;20092;-83
2021/11/20 04:49:00;;;;;;;5.80;4.53;;;5.80;99.90;;;;;;6180078;28;20037;-83
2021/11/20 04:52:01;;;;;;;8.77;5.25;;;3.30;99.90;;;;;;6180777;28;20030;-83
2021/11/20 04:55:02;;;;;;;9.25;5.97;;;3.50;99.90;;;;;;6180274;28;20026;-84
2021/11/20 04:58:03;;;;;;;12.18;5.88;;;;;;;;;;6180300;28;20026;-83
2021/11/20 05:01:05;;;;;;;9.57;5.47;;;3.00;99.90;;;;;;6164392;28;20532;-83
2021/11/20 05:04:06;;;;;;;7.57;4.93;;;;;;;;;;6164278;28;20113;-84
2021/11/20 05:07:08;;;;;;;8.35;5.45;;;;;;;;;;6164222;28;20655;-83
2021/11/20 05:10:09;;;;;;;9.57;5.50;;;3.20;99.90;;;;;;6180296;28;20025;-82
2021/11/20 05:13:10;;;;;;;8.35;4.80;;;3.00;99.90;;;;;;6163775;28;20621;-81
2021/11/20 05:16:11;;;;;;;6.20;4.90;;;5.60;99.90;;;;;;6163548;28;20069;-83
2021/11/20 05:19:12;;;;;;;6.28;4.45;;;3.20;99.90;;;;;;6179802;28;20031;-82
2021/11/20 05:22:12;;;;;;;6.15;4.50;;;3.00;99.90;;;;;;6179592;28;20527;-82
2021/11/20 05:25:14;;;;;;;7.38;5.28;;;2.90;99.90;;;;;;6179895;28;20046;-83
2021/11/20 05:28:15;;;;;;;58.63;47.13;;;3.00;99.90;;;;;;6163322;28;20110;-83
2021/11/20 05:31:17;;;;;;;10.77;9.68;;;2.80;99.90;;;;;;6163709;28;20069;-83
2021/11/20 05:34:18;;;;;;;5.80;4.65;;;;;;;;;;6163895;28;20469;-83
2021/11/20 05:37:19;;;;;;;6.57;4.10;;;;;;;;;;6178323;28;20101;-82
2021/11/20 05:40:20;;;;;;;7.40;5.18;;;;;;;;;;6179463;28;20049;-82
2021/11/20 05:43:21;;;;;;;9.30;6.43;;;2.80;99.90;;;;;;6179000;28;20026;-82
2021/11/20 05:46:22;;;;;;;8.80;6.00;;;2.80;99.90;;;;;;6162810;28;20408;-82
2021/11/20 05:49:23;;;;;;;8.10;5.50;;;2.60;99.90;;;;;;6162883;28;20118;-84
2021/11/20 05:52:24;;;;;;;9.40;6.32;;;;;;;;;;6179211;28;20031;-82
2021/11/20 05:55:30;;;;;;;5.90;4.30;;;2.80;99.90;;;;;;6178812;28;20023;-83
2021/11/20 05:58:31;;;;;;;6.43;4.38;;;2.80;99.90;;;;;;6179089;28;20062;-83
2021/11/20 06:01:32;;;;;;;7.03;4.78;;;;;;;;;;6162539;28;20060;-83
2021/11/20 06:04:33;;;;;;;7.45;5.00;;;3.00;99.90;;;;;;6162614;28;20429;-84
2021/11/20 06:07:35;;;;;;;6.83;4.50;;;2.80;99.90;;;;;;6163049;28;20042;-83
2021/11/20 06:10:36;;;;;;;6.57;4.90;;;;;;;;;;6162210;28;20037;-82
2021/11/20 06:13:37;;;;;;;6.45;4.88;;;2.80;99.90;;;;;;6179069;28;20422;-83
2021/11/20 06:16:38;;;;;;;7.70;5.20;;;;;;;;;;6178633;28;20041;-83
2021/11/20 06:19:38;;;;;;;7.05;5.88;;;2.60;99.90;;;;;;6178327;28;20034;-83
2021/11/20 06:22:39;;;;;;;7.25;5.13;;;;;;;;;;6162788;28;20060;-82
2021/11/20 06:25:40;;;;;;;6.22;4.40;;;;;;;;;;6178803;28;20062;-82
2021/11/20 06:28:41;;;;;;;5.82;4.53;;;4.60;99.90;;;;;;6178259;28;20038;-82
2021/11/20 06:31:42;;;;;;;7.18;5.00;;;;;;;;;;6162124;28;20060;-82
2021/11/20 06:34:42;;;;;;;9.75;6.40;;;2.90;99.90;;;;;;6194187;28;20037;-82
2021/11/20 06:37:44;;;;;;;6.90;5.40;;;;;;;;;;6178185;28;20460;-82
2021/11/20 06:40:46;;;;;;;8.23;6.82;;;2.70;99.90;;;;;;6160938;28;20042;-83
2021/11/20 06:43:47;;;;;;;6.78;5.00;;;;;;;;;;6161307;28;20038;-83
2021/11/20 06:46:48;;;;;;;10.75;8.30;;;2.70;99.90;;;;;;6162031;28;20054;-82
2021/11/20 06:49:49;;;;;;;9.20;7.30;;;2.80;99.90;;;;;;6177331;28;20034;-81
2021/11/20 06:52:50;;;;;;;6.97;5.78;;;;;;;;;;6177813;28;20054;-82
2021/11/20 06:55:51;;;;;;;14.30;5.40;;;;;;;;;;6177518;28;20022;-82
2021/11/20 07:01:52;;;;;;;6.13;4.80;;;2.70;99.90;;;;;;6177978;28;20112;-82
2021/11/20 07:04:53;;;;;;;8.00;5.72;;;2.60;99.90;;;;;;6161035;28;20030;-82
2021/11/20 07:07:54;;;;;;;8.50;5.68;;;2.40;99.90;;;;;;6177854;28;20068;-82
2021/11/20 07:10:55;;;;;;;17.48;5.72;;;2.50;99.90;;;;;;6161505;28;20034;-82
2021/11/20 07:13:56;;;;;;;10.80;6.10;;;5.30;99.90;;;;;;6161313;28;20535;-83
2021/11/20 07:16:57;;;;;;;8.10;5.38;;;2.40;99.90;;;;;;6177362;28;20061;-81
2021/11/20 07:19:57;;;;;;;7.82;5.40;;;2.50;99.90;;;;;;6177560;28;20464;-81
2021/11/20 07:22:58;;;;;;;8.20;5.93;;;;;;;;;;6160526;28;20034;-84
2021/11/20 07:26:03;;;;;;;8.52;5.70;;;2.80;99.90;;;;;;6178102;28;20073;-84
2021/11/20 07:29:04;;;;;;;15.52;7.38;;;;;;;;;;6161746;28;20045;-85
2021/11/20 07:32:07;;;;;;;32.55;7.25;;;2.90;99.90;;;;;;6177625;28;20117;-82
2021/11/20 07:35:08;;;;;;;12.82;5.32;;;2.90;99.90;;;;;;6160898;28;20385;-84
2021/11/20 07:38:10;;;;;;;12.00;5.63;;;2.90;99.90;;;;;;6177709;28;20117;-82
2021/11/20 07:41:11;;;;;;;6.63;5.90;;;;;;;;;;6176760;28;20080;-83
2021/11/20 07:44:11;;;;;;;8.20;5.45;;;2.80;99.90;;;;;;6176938;28;20053;-82
2021/11/20 07:47:12;;;;;;;6.07;4.93;;;3.90;99.90;;;;;;6160405;28;20163;-82
2021/11/20 07:50:15;;;;;;;12.80;6.28;;;2.70;99.90;;;;;;6160478;28;20377;-82
2021/11/20 07:53:17;;;;;;;20.95;9.52;;;;;;;;;;6177191;28;20077;-83
2021/11/20 07:56:19;;;;;;;11.95;5.80;;;2.80;99.90;;;;;;6194136;28;20022;-83
2021/11/20 07:59:20;;;;;;;13.60;6.43;;;;;;;;;;6160632;28;20042;-83
2021/11/20 08:02:21;;;;;;;16.73;4.97;;;;;;;;;;6180429;28;20088;-83
2021/11/20 08:05:25;;;;;;;35.05;6.70;;;2.60;99.90;;;;;;6198732;28;20029;-82
2021/11/20 08:08:26;;;;;;;12.68;6.13;;;2.70;99.90;;;;;;6181293;28;20060;-84
2021/11/20 08:11:27;;;;;;;15.07;5.90;;;2.60;99.90;;;;;;6180828;28;20026;-79
2021/11/20 08:14:27;;;;;;;24.85;5.30;;;2.80;99.90;;;;;;6181646;28;20069;-78
2021/11/20 08:17:28;;;;;;;16.52;5.60;;;;;;;;;;6180455;28;20041;-79
2021/11/20 08:20:33;;;;;;;35.90;6.40;;;2.90;99.90;;;;;;6198656;28;20307;-77
2021/11/20 08:23:34;;;;;;;32.00;6.22;;;2.60;99.90;;;;;;6181159;28;20030;-80
2021/11/20 08:26:36;;;;;;;55.80;7.00;;;;;;;;;;6181193;28;20030;-78
2021/11/20 08:29:38;;;;;;;19.30;6.00;;;2.70;99.90;;;;;;6198025;28;20143;-77
2021/11/20 08:32:39;;;;;;;36.10;6.83;;;;;;;;;;6181132;28;20159;-77
2021/11/20 08:35:40;;;;;;;16.23;6.57;;;2.70;99.90;;;;;;6164996;28;20026;-78
2021/11/20 08:38:41;;;;;;;7.57;5.70;;;2.90;99.90;;;;;;6180385;28;20414;-78
2021/11/20 08:41:43;;;;;;;16.98;11.32;;;3.00;99.90;;;;;;6180714;28;20061;-78
2021/11/20 08:44:43;;;;;;;21.50;7.65;;;3.20;99.90;;;;;;6181006;28;20030;-80
2021/11/20 08:47:44;;;;;;;8.73;6.63;;;3.10;99.90;;;;;;6180559;28;20081;-79
2021/11/20 08:50:47;;;;;;;14.10;6.60;;;3.60;99.90;;;;;;6180834;28;20030;-80
2021/11/20 08:53:50;;;;;;;7.90;5.68;;;3.50;99.90;;;;;;6180262;28;20038;-79
2021/11/20 08:56:53;;;;;;;8.45;5.07;;;3.60;99.90;;;;;;6164370;28;20027;-79
2021/11/20 08:59:54;;;;;;;6.97;5.35;;;;;;;;;;6180208;28;20045;-78
2021/11/20 09:03:01;;;;;;;8.55;5.55;;;3.50;99.90;;;;;;6197477;28;20396;-78
2021/11/20 09:06:16;;;;;;;11.80;6.18;;;3.50;99.90;;;;;;6180624;28;20033;-79
2021/11/20 09:09:24;;;;;;;24.60;6.00;;;3.70;99.90;;;;;;6179810;28;20069;-78
2021/11/20 09:12:30;;;;;;;7.88;5.22;;;3.70;99.90;;;;;;6179579;28;20018;-79
2021/11/20 09:15:39;;;;;;;6.90;5.32;;;3.90;99.90;;;;;;6179953;28;20767;-78
2021/11/20 09:18:40;;;;;;;9.07;7.80;;;4.00;99.90;;;;;;6163453;28;20038;-79
2021/11/20 09:21:41;;;;;;;14.30;6.15;;;;;;;;;;6179685;28;20027;-79
2021/11/20 09:24:43;;;;;;;9.43;6.32;;;3.40;99.90;;;;;;6197673;28;20096;-78
2021/11/20 09:27:43;;;;;;;16.27;7.15;;;3.90;99.90;;;;;;6179964;28;20503;-80
2021/11/20 09:30:46;;;;;;;17.85;5.30;;;4.50;99.90;;;;;;6197491;28;20117;-78
2021/11/20 09:33:47;;;;;;;18.35;10.95;;;;;;;;;;6179319;28;20057;-78
2021/11/20 09:36:50;;;;;;;12.50;6.03;;;4.40;99.90;;;;;;6194991;28;20396;-78
2021/11/20 09:39:51;;;;;;;9.35;5.43;;;;;;;;;;6178618;28;20052;-79
2021/11/20 09:42:53;;;;;;;16.30;7.20;;;4.10;99.90;;;;;;6196551;28;20038;-78
2021/11/20 09:46:09;;;;;;;17.77;7.57;;;3.80;99.90;;;;;;6179098;28;20401;-78
2021/11/20 09:49:18;;;;;;;26.63;8.95;;;3.70;99.90;;;;;;6177307;28;20034;-81
2021/11/20 09:52:19;;;;;;;13.30;6.20;;;3.80;99.90;;;;;;6179287;28;20034;-80
2021/11/20 09:55:31;;;;;;;17.33;5.90;;;3.80;99.90;;;;;;6178852;28;20161;-77
2021/11/20 09:58:33;;;;;;;7.88;6.35;;;3.80;99.90;;;;;;6178405;28;20045;-78
2021/11/20 10:01:37;;;;;;;37.13;6.63;;;3.80;99.90;;;;;;6162473;28;20042;-81
2021/11/20 10:04:56;;;;;;;23.40;10.30;;;3.90;99.90;;;;;;6179152;28;20524;-80
2021/11/20 10:08:02;;;;;;;14.45;7.35;;;3.90;99.90;;;;;;6195818;28;20034;-81
2021/11/20 10:11:09;;;;;;;23.08;7.25;;;4.00;99.90;;;;;;6195965;28;20026;-79
2021/11/20 10:14:13;;;;;;;27.30;7.45;;;3.90;99.90;;;;;;6196114;28;20481;-78
2021/11/20 10:17:29;;;;;;;14.90;9.13;;;4.10;99.90;;;;;;6179032;28;20544;-78
2021/11/20 10:20:41;;;;;;;18.95;7.70;;;4.10;99.90;;;;;;6178153;28;21124;-79
2021/11/20 10:23:49;;;;;;;10.77;6.70;;;4.10;99.90;;;;;;6177619;28;20070;-80
2021/11/20 10:27:18;;;;;;;10.95;6.78;;;4.20;99.90;;;;;;6178624;28;20034;-81
2021/11/20 10:30:24;;;;;;;11.70;7.45;;;4.30;99.90;;;;;;6195711;28;20065;-78
2021/11/20 10:33:50;;;;;;;14.80;8.80;;;4.30;99.90;;;;;;6195781;28;20376;-79
2021/11/20 10:37:14;;;;;;;9.10;5.88;;;4.40;99.90;;;;;;6178256;28;20117;-80
2021/11/20 10:40:32;;;;;;;7.45;5.97;;;4.70;99.90;;;;;;6178228;28;20042;-80
2021/11/20 10:43:40;;;;;;;11.52;6.72;;;5.10;99.90;;;;;;6177805;28;20556;-80
2021/11/20 10:46:49;;;;;;;9.48;7.22;;;4.80;99.90;;;;;;6160843;28;20058;-79
2021/11/20 10:49:50;;;;;;;10.30;7.38;;;;;;;;;;6194115;28;20026;-80
2021/11/20 10:53:35;;;;;;;18.60;9.38;;;4.70;99.90;;;;;;6192834;28;20036;-82
2021/11/20 10:56:42;;;;;;;16.60;8.20;;;4.90;99.90;;;;;;6163294;28;20061;-85
2021/11/20 10:59:44;;;;;;;13.32;6.57;;;;;;;;;;6177069;28;20038;-82
2021/11/20 11:02:47;;;;;;;8.80;6.35;;;5.30;99.90;;;;;;6192817;28;20081;-81
2021/11/20 11:06:33;;;;;;;10.38;6.80;;;5.10;99.90;;;;;;6194472;28;20053;-82
2021/11/20 11:09:53;;;;;;;17.77;9.32;;;5.20;99.90;;;;;;6191495;28;20496;-81
2021/11/20 11:13:14;;;;;;;10.68;7.05;;;5.10;99.90;;;;;;6162121;28;20054;-83
2021/11/20 11:16:44;;;;;;;12.32;6.57;;;5.10;99.90;;;;;;6176639;28;20141;-81
2021/11/20 11:19:53;;;;;;;9.18;5.90;;;5.20;99.90;;;;;;6191705;28;20057;-82
2021/11/20 11:23:15;;;;;;;11.45;10.25;;;5.30;99.90;;;;;;6175753;28;20073;-81
2021/11/20 11:26:16;;;;;;;14.43;9.63;;;5.50;99.90;;;;;;6178654;28;20026;-80
2021/11/20 11:29:43;;;;;;;37.03;22.05;;;5.40;99.90;;;;;;6175880;28;20033;-81
2021/11/20 11:32:44;;;;;;;32.95;28.80;;;5.50;99.90;;;;;;6169161;28;20051;-80
2021/11/20 11:35:59;;;;;;;11.95;7.57;;;5.30;99.90;;;;;;6173598;28;20034;-78
2021/11/20 11:39:18;;;;;;;11.43;6.90;;;5.30;99.90;;;;;;6175901;28;20571;-79
2021/11/20 11:42:19;;;;;;;25.83;7.85;;;;;;;;;;6192826;28;20144;-80
2021/11/20 11:45:20;;;;;;;7.57;6.43;;;;;;;;;;6127752;28;1869175;-81
2021/11/20 11:48:26;;;;;;;26.92;14.25;;;5.40;99.90;;;;;;6194628;28;20531;-80
2021/11/20 11:51:56;;;;;;;9.10;5.95;;;5.60;99.90;;;;;;6193820;28;20430;-81
2021/11/20 11:55:23;;;;;;;12.75;7.63;;;5.50;99.90;;;;;;6165233;28;20045;-79
2021/11/20 11:58:29;;;;;;;7.38;5.85;;;5.50;99.90;;;;;;6177460;28;20104;-79
2021/11/20 12:01:52;;;;;;;25.35;7.93;;;5.70;99.90;;;;;;6177540;28;20030;-80
2021/11/20 12:05:14;;;;;;;8.98;5.38;;;5.30;99.90;;;;;;6176174;28;20027;-79
2021/11/20 12:08:21;;;;;;;12.32;6.70;;;5.90;99.90;;;;;;6179149;28;20132;-80
2021/11/20 12:11:28;;;;;;;12.75;7.05;;;5.80;99.90;;;;;;6176740;28;20030;-79
2021/11/20 12:14:37;;;;;;;54.17;10.68;;;5.00;99.90;;;;;;6176937;28;20030;-80
2021/11/20 12:18:01;;;;;;;12.20;6.82;;;6.00;99.90;;;;;;6177410;28;20476;-79
2021/11/20 12:21:26;;;;;;;16.85;7.50;;;5.80;99.90;;;;;;6177471;28;20076;-79
2021/11/20 12:24:45;;;;;;;9.77;7.22;;;6.00;99.90;;;;;;6177790;28;20028;-79
2021/11/20 12:27:48;;;;;;;10.50;6.97;;;5.90;99.90;;;;;;6175572;28;20026;-79
2021/11/20 12:31:13;;;;;;;10.50;7.72;;;5.70;99.90;;;;;;6188614;28;20050;-79
2021/11/20 12:34:45;;;;;;;9.30;7.47;;;5.90;99.90;;;;;;6177100;28;20429;-78
2021/11/20 12:38:01;;;;;;;38.40;8.05;;;5.20;99.90;;;;;;6174307;28;20034;-78
2021/11/20 12:41:30;;;;;;;30.25;9.10;;;5.80;99.90;;;;;;6189399;28;20046;-79
2021/11/20 12:44:30;;;;;;;14.23;8.10;;;5.60;99.90;;;;;;6176176;28;20047;-79
2021/11/20 12:47:43;;;;;;;11.43;8.60;;;5.50;99.90;;;;;;6193526;28;20204;-79
2021/11/20 12:50:47;;;;;;;69.22;9.48;;;5.60;99.90;;;;;;6196825;28;20508;-80
2021/11/20 12:53:51;;;;;;;39.80;9.10;;;5.30;99.90;;;;;;6198074;28;20113;-78
2021/11/20 12:57:05;;;;;;;22.13;9.02;;;5.50;99.90;;;;;;6197780;28;20027;-79
2021/11/20 13:00:09;;;;;;;12.50;8.27;;;5.40;99.90;;;;;;6180606;28;20034;-79
2021/11/20 13:03:12;;;;;;;13.60;10.00;;;5.80;99.90;;;;;;6197782;28;20030;-80
2021/11/20 13:06:31;;;;;;;15.05;9.43;;;5.50;99.90;;;;;;6197932;28;20085;-80
2021/11/20 13:09:55;;;;;;;15.75;8.18;;;3.80;99.90;;;;;;6179620;28;20105;-82
2021/11/20 13:13:06;;;;;;;19.13;7.65;;;5.50;99.90;;;;;;6183775;28;20532;-81
2021/11/20 13:16:40;;;;;;;15.43;7.88;;;5.30;99.90;;;;;;6180324;28;20034;-80
2021/11/20 13:19:44;;;;;;;23.75;9.57;;;;;;;;;;6197361;28;20042;-84
2021/11/20 13:22:46;;;;;;;37.53;11.60;;;5.10;99.90;;;;;;6195383;28;20117;-80
2021/11/20 13:26:05;;;;;;;95.83;11.57;;;5.50;99.90;;;;;;6147893;28;20437;-81
2021/11/20 13:29:06;;;;;;;169.40;26.25;;;5.60;99.90;;;;;;6147793;28;20042;-85
2021/11/20 13:32:09;;;;;;;41.13;22.20;;;5.70;99.90;;;;;;6164076;28;20045;-85
2021/11/20 13:35:10;;;;;;;18.38;11.18;;;5.70;99.90;;;;;;6152571;28;20473;-81
2021/11/20 13:38:13;;;;;;;13.68;9.32;;;5.70;99.90;;;;;;6162185;28;20081;-79
2021/11/20 13:41:13;;;;;;;12.05;8.80;;;5.50;99.90;;;;;;6179307;28;20045;-78
2021/11/20 13:44:14;;;;;;;18.52;10.35;;;;;;;;;;6179157;28;20481;-77
2021/11/20 13:47:15;;;;;;;24.00;12.30;;;;;;;;;;6179904;28;20093;-83
2021/11/20 13:50:16;;;;;;;30.20;10.13;;;5.60;99.90;;;;;;6163056;28;20031;-78
2021/11/20 13:53:25;;;;;;;44.97;11.02;;;5.70;99.90;;;;;;6196549;28;20034;-83
2021/11/20 13:56:26;;;;;;;23.50;9.63;;;5.90;99.90;;;;;;6180181;28;20086;-82
2021/11/20 13:59:27;;;;;;;25.70;17.33;;;;;;;;;;6178551;28;20038;-84
2021/11/20 14:02:28;;;;;;;22.92;18.95;;;;;;;;;;6163176;28;20031;-83
2021/11/20 14:05:33;;;;;;;28.38;11.05;;;5.40;99.90;;;;;;6194473;28;20027;-80
2021/11/20 14:08:40;;;;;;;16.73;9.48;;;5.20;99.90;;;;;;6163063;28;20026;-84
2021/11/20 14:11:49;;;;;;;15.00;9.80;;;5.30;99.90;;;;;;6162856;28;20026;-81
2021/11/20 14:14:50;;;;;;;46.60;10.55;;;;;;;;;;6180052;28;20489;-83
2021/11/20 14:17:50;;;;;;;16.52;10.43;;;5.20;99.90;;;;;;6178816;28;20464;-84
2021/11/20 14:20:52;;;;;;;15.70;10.18;;;;;;;;;;6146225;28;20054;-83
2021/11/20 14:24:12;;;;;;;11.47;9.50;;;4.80;99.90;;;;;;6178120;28;20022;-81
2021/11/20 14:27:15;;;;;;;11.65;9.15;;;5.40;99.90;;;;;;6179285;28;20030;-84
2021/11/20 14:30:17;;;;;;;14.55;10.32;;;5.30;99.90;;;;;;6178606;28;20042;-84
2021/11/20 14:33:27;;;;;;;19.52;12.05;;;5.50;99.90;;;;;;6162548;28;20130;-85
2021/11/20 14:36:35;;;;;;;17.75;11.77;;;5.50;99.90;;;;;;6163405;28;20061;-85
2021/11/20 14:39:35;;;;;;;16.20;11.90;;;5.50;99.90;;;;;;6178575;28;20092;-83
2021/11/20 14:42:39;;;;;;;14.98;10.73;;;5.40;99.90;;;;;;6161277;28;20026;-83
2021/11/20 14:45:41;;;;;;;24.20;12.55;;;;;;;;;;6162267;28;20050;-82
2021/11/20 14:48:42;;;;;;;24.25;16.83;;;;;;;;;;6177396;28;20184;-81
2021/11/20 14:51:47;;;;;;;19.80;15.48;;;5.20;99.90;;;;;;6178172;28;20022;-83
2021/11/20 14:54:56;;;;;;;14.68;10.82;;;5.30;99.90;;;;;;6178017;28;20084;-81
2021/11/20 14:57:57;;;;;;;12.60;9.30;;;5.40;99.90;;;;;;6162308;28;20026;-81
2021/11/20 15:00:59;;;;;;;13.57;10.80;;;5.30;99.90;;;;;;6177554;28;20042;-82
2021/11/20 15:04:03;;;;;;;13.38;9.95;;;;;;;;;;6145289;28;20079;-82
2021/11/20 15:07:04;;;;;;;14.07;10.68;;;;;;;;;;6177175;28;20085;-79
2021/11/20 15:10:05;;;;;;;29.50;12.85;;;5.10;99.90;;;;;;6177677;28;20037;-79
2021/11/20 15:13:06;;;;;;;19.42;12.07;;;5.10;99.90;;;;;;6177914;28;20035;-79
2021/11/20 15:16:07;;;;;;;42.92;22.70;;;;;;;;;;6176341;28;20057;-78
2021/11/20 15:19:08;;;;;;;107.03;16.30;;;5.00;99.90;;;;;;6171592;28;20049;-78
2021/11/20 15:22:09;;;;;;;45.88;12.48;;;;;;;;;;6174595;28;20097;-79
2021/11/20 15:25:10;;;;;;;50.40;12.82;;;;;;;;;;6194417;28;20362;-77
2021/11/20 15:28:11;;;;;;;15.70;11.75;;;5.00;99.90;;;;;;6193046;28;20056;-78
2021/11/20 15:31:12;;;;;;;40.53;16.30;;;;;;;;;;6193440;28;20184;-78
2021/11/20 15:34:13;;;;;;;39.90;14.90;;;4.60;99.90;;;;;;6176506;28;20471;-79
2021/11/20 15:37:13;;;;;;;78.85;14.30;;;4.80;99.90;;;;;;6176646;28;20023;-79
2021/11/20 15:40:14;;;;;;;66.45;16.98;;;;;;;;;;6176462;28;20061;-81
2021/11/20 15:43:15;;;;;;;72.05;18.67;;;4.60;99.90;;;;;;6159788;28;20023;-79
2021/11/20 15:46:16;;;;;;;42.60;15.07;;;;;;;;;;6141655;28;20592;-78
2021/11/20 15:49:17;;;;;;;43.13;14.27;;;;;;;;;;6192744;28;20555;-80
2021/11/20 15:52:19;;;;;;;34.90;13.98;;;;;;;;;;6176341;28;21046;-78
2021/11/20 15:55:19;;;;;;;71.55;14.80;;;5.20;99.90;;;;;;6175564;28;20033;-79
2021/11/20 15:58:20;;;;;;;51.65;14.52;;;;;;;;;;6176863;28;20030;-79
2021/11/20 16:01:21;;;;;;;51.10;12.75;;;;;;;;;;6194094;28;20232;-79
2021/11/20 16:04:24;;;;;;;78.80;17.70;;;;;;;;;;6161039;28;20026;-79
2021/11/20 16:07:25;;;;;;;113.20;17.20;;;;;;;;;;6160792;28;20061;-80
2021/11/20 16:10:25;;;;;;;62.60;15.20;;;4.40;99.90;;;;;;6177126;28;20026;-79
2021/11/20 16:13:27;;;;;;;34.85;12.73;;;4.80;99.90;;;;;;6160677;28;20034;-80
2021/11/20 16:16:31;;;;;;;125.10;30.50;;;4.30;99.90;;;;;;6176226;28;20034;-79
2021/11/20 16:19:33;;;;;;;84.07;16.20;;;4.30;99.90;;;;;;6177136;28;20141;-80
2021/11/20 16:22:36;;;;;;;81.53;14.10;;;4.30;99.90;;;;;;6179328;28;20022;-80
2021/11/20 16:25:36;;;;;;;74.00;15.70;;;4.20;99.90;;;;;;6164730;28;20034;-78
2021/11/20 16:28:37;;;;;;;90.78;15.88;;;4.50;99.90;;;;;;6164812;28;20038;-78
2021/11/20 16:31:38;;;;;;;62.78;19.92;;;4.20;99.90;;;;;;6180249;28;20120;-80
2021/11/20 16:34:39;;;;;;;28.58;12.55;;;4.30;99.90;;;;;;6164812;28;20077;-79